Bay Port, New York
Current Conditions -  °F | °C
As of 9:56 AM on Tuesday 21 Oct 2014 (Local Time) from KISP Reporting Station
Broken Clouds Broken Clouds  
Wind Chill: 60°   Ceiling: 12000
Heat Index: 60°   Visibility: 10mi
Dew Point: 51°   Wind: 6mph
Humidity: 72%   Direction: 100°E
Pressure: 29.9"   Gusts: NA
Location:  40.746°N, 73.0539°W
Report Text: KISP 211356Z 10005KT 10SM FEW050 BKN120 BKN150 BKN250 16/11 A2990 RMK AO2 SLP124 T01560106
Loading
Personal Weather Stations






























Interactive Weather Map New forecast layout! Learn more

10-Day Weather Forecast

Advertisements
Track Severe Weather on mobile